DLH481 KDEN-EDDM
Flight info
| Callsign | DLH481 |
|---|---|
| Flight time | N/A |
| Altitude | 35000 |
| Route | CHUWY1 CHUWY Q88 VIVID DCT DLH DCT OVORA/N0502F370 DCT PEMLU DCT MEMSO DCT PUVOK DCT DORYY/M085F380 DCT 58N050W 59N040W 59N030W 58N020W DCT SUNOT DCT KESIX/N0486F390 DCT APSOV DCT PEPOD DCT MAKUX DCT SOSIM L15 GIGTO UQ4 WAL M16 DOLAS DCT NAVPI DCT DOJOH DCT DODEN/N0454F330 DCT TABUM DCT BOMBI T104 HAREM/N0415F270 T104 ROKIL ROKIL1A |
| Aircraft | A388/J-SADE2E3FGHIJ3J4J5M1RWXY/LB1D1 |
Departure
| Time | N/A |
|---|---|
| Airport | Denver International Airport (KDEN) |
Arrival
| Time | 2026-05-01 11:38 |
|---|---|
| Airport | Munich Airport (EDDM) |
| Time | Latitude | Longitude | Altitude | Speed | Heading |
|---|---|---|---|---|---|
| 2026-05-01 08:14 | 58.97309 | -29.56096 | 38190 ft | 537 kts | 96° |
| 2026-05-01 08:15 | 58.95966 | -29.34530 | 38186 ft | 537 kts | 96° |
| 2026-05-01 08:16 | 58.95038 | -29.20162 | 38186 ft | 537 kts | 96° |
| 2026-05-01 08:16 | 58.94092 | -29.05814 | 38205 ft | 537 kts | 96° |
| 2026-05-01 08:17 | 58.93130 | -28.91491 | 38191 ft | 536 kts | 96° |
| 2026-05-01 08:17 | 58.92155 | -28.77197 | 38186 ft | 536 kts | 97° |
| 2026-05-01 08:18 | 58.91164 | -28.62919 | 38184 ft | 535 kts | 97° |
| 2026-05-01 08:19 | 58.89136 | -28.34404 | 38205 ft | 535 kts | 97° |
| 2026-05-01 08:19 | 58.88100 | -28.20167 | 38195 ft | 535 kts | 97° |
| 2026-05-01 08:20 | 58.87047 | -28.05941 | 38180 ft | 534 kts | 97° |
| 2026-05-01 08:20 | 58.85980 | -27.91735 | 38186 ft | 534 kts | 97° |
| 2026-05-01 08:21 | 58.84898 | -27.77548 | 38183 ft | 534 kts | 98° |
| 2026-05-01 08:21 | 58.83802 | -27.63383 | 38181 ft | 534 kts | 98° |
| 2026-05-01 08:22 | 58.82690 | -27.49216 | 38182 ft | 534 kts | 98° |
| 2026-05-01 08:22 | 58.81569 | -27.35147 | 38180 ft | 534 kts | 98° |
| 2026-05-01 08:23 | 58.80427 | -27.21020 | 38173 ft | 533 kts | 98° |
| 2026-05-01 08:23 | 58.79269 | -27.06889 | 38172 ft | 533 kts | 98° |
| 2026-05-01 08:24 | 58.78096 | -26.92782 | 38170 ft | 533 kts | 98° |
| 2026-05-01 08:24 | 58.76909 | -26.78693 | 38168 ft | 533 kts | 98° |
| 2026-05-01 08:25 | 58.75705 | -26.64597 | 38174 ft | 533 kts | 99° |
| 2026-05-01 08:25 | 58.74485 | -26.50507 | 38173 ft | 533 kts | 99° |
| 2026-05-01 08:26 | 58.73251 | -26.36437 | 38174 ft | 533 kts | 99° |
| 2026-05-01 08:26 | 58.72001 | -26.22369 | 38177 ft | 533 kts | 99° |
| 2026-05-01 08:27 | 58.70735 | -26.08305 | 38177 ft | 533 kts | 99° |
| 2026-05-01 08:27 | 58.69453 | -25.94242 | 38172 ft | 533 kts | 99° |
| 2026-05-01 08:28 | 58.68157 | -25.80212 | 38183 ft | 533 kts | 99° |
| 2026-05-01 08:28 | 58.66848 | -25.66209 | 38175 ft | 533 kts | 100° |
| 2026-05-01 08:29 | 58.65532 | -25.52304 | 38177 ft | 532 kts | 100° |
| 2026-05-01 08:29 | 58.64193 | -25.38327 | 38171 ft | 532 kts | 100° |
| 2026-05-01 08:30 | 58.62840 | -25.24374 | 38172 ft | 532 kts | 100° |
| 2026-05-01 08:30 | 58.61472 | -25.10422 | 38167 ft | 532 kts | 100° |
| 2026-05-01 08:31 | 58.60090 | -24.96504 | 38129 ft | 532 kts | 101° |
| 2026-05-01 08:31 | 58.58692 | -24.82589 | 38167 ft | 531 kts | 101° |
| 2026-05-01 08:32 | 58.57282 | -24.68711 | 38168 ft | 531 kts | 101° |
| 2026-05-01 08:32 | 58.55856 | -24.54823 | 38169 ft | 531 kts | 101° |
| 2026-05-01 08:33 | 58.54415 | -24.40961 | 38161 ft | 531 kts | 101° |
| 2026-05-01 08:33 | 58.52959 | -24.27101 | 38168 ft | 531 kts | 101° |
| 2026-05-01 08:34 | 58.51488 | -24.13258 | 38164 ft | 531 kts | 101° |
| 2026-05-01 08:34 | 58.50004 | -23.99438 | 38165 ft | 530 kts | 101° |
| 2026-05-01 08:35 | 58.48506 | -23.85642 | 38160 ft | 530 kts | 101° |
| 2026-05-01 08:35 | 58.46992 | -23.71845 | 38166 ft | 530 kts | 102° |
| 2026-05-01 08:36 | 58.45463 | -23.58060 | 38167 ft | 531 kts | 102° |
| 2026-05-01 08:36 | 58.43929 | -23.44373 | 38168 ft | 530 kts | 102° |
| 2026-05-01 08:37 | 58.42372 | -23.30619 | 38163 ft | 530 kts | 102° |
| 2026-05-01 08:37 | 58.40801 | -23.16893 | 38161 ft | 530 kts | 102° |
| 2026-05-01 08:38 | 58.39214 | -23.03160 | 38160 ft | 530 kts | 102° |
| 2026-05-01 08:38 | 58.37614 | -22.89454 | 38165 ft | 529 kts | 102° |
| 2026-05-01 08:39 | 58.36001 | -22.75779 | 38166 ft | 529 kts | 102° |
| 2026-05-01 08:39 | 58.34374 | -22.62114 | 38161 ft | 529 kts | 103° |
| 2026-05-01 08:40 | 58.32187 | -22.43959 | 38159 ft | 529 kts | 103° |
| 2026-05-01 08:40 | 58.30526 | -22.30335 | 38159 ft | 529 kts | 103° |
| 2026-05-01 08:41 | 58.28854 | -22.16741 | 38171 ft | 528 kts | 103° |
| 2026-05-01 08:41 | 58.27165 | -22.03140 | 38151 ft | 528 kts | 103° |
| 2026-05-01 08:42 | 58.25464 | -21.89575 | 38156 ft | 528 kts | 103° |
| 2026-05-01 08:42 | 58.23749 | -21.76027 | 38155 ft | 527 kts | 103° |
| 2026-05-01 08:43 | 58.22021 | -21.62499 | 38149 ft | 527 kts | 103° |
| 2026-05-01 08:43 | 58.20279 | -21.48985 | 38156 ft | 528 kts | 103° |
| 2026-05-01 08:44 | 58.18523 | -21.35482 | 38165 ft | 527 kts | 104° |
| 2026-05-01 08:44 | 58.16753 | -21.22005 | 38163 ft | 527 kts | 104° |
| 2026-05-01 08:45 | 58.14971 | -21.08553 | 38153 ft | 526 kts | 104° |
| 2026-05-01 08:45 | 58.13179 | -20.95145 | 38164 ft | 525 kts | 104° |
| 2026-05-01 08:46 | 58.11377 | -20.81781 | 38154 ft | 524 kts | 104° |
| 2026-05-01 08:46 | 58.09561 | -20.68433 | 38159 ft | 524 kts | 104° |
| 2026-05-01 08:47 | 58.07748 | -20.55217 | 38162 ft | 523 kts | 104° |
| 2026-05-01 08:47 | 58.05912 | -20.41949 | 38153 ft | 522 kts | 104° |
| 2026-05-01 08:48 | 58.04073 | -20.28718 | 38149 ft | 521 kts | 104° |
| 2026-05-01 08:48 | 58.02227 | -20.15500 | 38143 ft | 521 kts | 104° |
| 2026-05-01 08:49 | 58.00340 | -20.02302 | 38169 ft | 520 kts | 106° |
| 2026-05-01 08:49 | 57.98091 | -19.89382 | 38184 ft | 518 kts | 109° |
| 2026-05-01 08:50 | 57.95818 | -19.76516 | 38173 ft | 517 kts | 108° |
| 2026-05-01 08:50 | 57.93569 | -19.63699 | 38166 ft | 515 kts | 109° |
| 2026-05-01 08:51 | 57.91288 | -19.50920 | 38153 ft | 514 kts | 109° |
| 2026-05-01 08:51 | 57.88990 | -19.38193 | 38156 ft | 513 kts | 109° |
| 2026-05-01 08:52 | 57.86683 | -19.25499 | 38146 ft | 513 kts | 109° |
| 2026-05-01 08:52 | 57.84369 | -19.12857 | 38158 ft | 512 kts | 109° |
| 2026-05-01 08:53 | 57.82044 | -19.00240 | 38158 ft | 511 kts | 109° |
| 2026-05-01 08:53 | 57.79709 | -18.87646 | 38158 ft | 511 kts | 109° |
| 2026-05-01 08:54 | 57.77365 | -18.75092 | 38156 ft | 511 kts | 109° |
| 2026-05-01 08:54 | 57.75020 | -18.62613 | 38160 ft | 511 kts | 109° |
| 2026-05-01 08:55 | 57.72647 | -18.50068 | 38164 ft | 511 kts | 110° |
| 2026-05-01 08:55 | 57.70262 | -18.37543 | 38182 ft | 511 kts | 110° |
| 2026-05-01 08:56 | 57.67875 | -18.25086 | 38181 ft | 509 kts | 110° |
| 2026-05-01 08:56 | 57.65476 | -18.12649 | 38192 ft | 508 kts | 110° |
| 2026-05-01 08:57 | 57.63073 | -18.00268 | 38166 ft | 507 kts | 110° |
| 2026-05-01 08:57 | 57.60661 | -17.87920 | 38170 ft | 506 kts | 110° |
| 2026-05-01 08:58 | 57.58242 | -17.75613 | 38153 ft | 506 kts | 111° |
| 2026-05-01 08:58 | 57.55814 | -17.63337 | 38182 ft | 504 kts | 111° |
| 2026-05-01 08:59 | 57.53378 | -17.51097 | 38169 ft | 504 kts | 111° |
| 2026-05-01 08:59 | 57.50934 | -17.38898 | 38170 ft | 503 kts | 111° |
| 2026-05-01 09:00 | 57.48480 | -17.26716 | 38165 ft | 503 kts | 111° |
| 2026-05-01 09:00 | 57.46015 | -17.14557 | 38167 ft | 503 kts | 111° |
| 2026-05-01 09:01 | 57.43538 | -17.02413 | 38171 ft | 503 kts | 111° |
| 2026-05-01 09:01 | 57.41048 | -16.90281 | 38176 ft | 503 kts | 112° |
| 2026-05-01 09:02 | 57.38547 | -16.78166 | 38177 ft | 503 kts | 112° |
| 2026-05-01 09:02 | 57.36035 | -16.66072 | 38177 ft | 503 kts | 112° |
| 2026-05-01 09:03 | 57.33531 | -16.54088 | 38181 ft | 502 kts | 112° |
| 2026-05-01 09:03 | 57.31002 | -16.42055 | 38174 ft | 502 kts | 112° |
| 2026-05-01 09:04 | 57.28462 | -16.30043 | 38178 ft | 501 kts | 112° |
| 2026-05-01 09:04 | 57.25915 | -16.18063 | 38184 ft | 500 kts | 112° |
| 2026-05-01 09:05 | 57.23361 | -16.06124 | 38183 ft | 499 kts | 112° |
| 2026-05-01 09:05 | 57.20801 | -15.94226 | 38175 ft | 499 kts | 112° |
| 2026-05-01 09:06 | 57.18230 | -15.82348 | 38182 ft | 498 kts | 112° |
| 2026-05-01 09:06 | 57.15655 | -15.70514 | 38173 ft | 497 kts | 112° |
| 2026-05-01 09:07 | 57.13069 | -15.58697 | 38174 ft | 497 kts | 112° |
| 2026-05-01 09:07 | 57.10475 | -15.46916 | 38176 ft | 496 kts | 112° |
| 2026-05-01 09:08 | 57.07874 | -15.35163 | 38180 ft | 496 kts | 113° |
| 2026-05-01 09:08 | 57.05264 | -15.23442 | 38168 ft | 496 kts | 113° |
| 2026-05-01 09:09 | 57.02647 | -15.11737 | 38172 ft | 495 kts | 113° |
| 2026-05-01 09:09 | 57.00284 | -14.99879 | 38183 ft | 495 kts | 103° |
| 2026-05-01 09:10 | 56.99397 | -14.87389 | 38178 ft | 494 kts | 95° |
| 2026-05-01 09:10 | 56.98825 | -14.74939 | 38191 ft | 493 kts | 96° |
| 2026-05-01 09:11 | 56.98223 | -14.62444 | 38177 ft | 492 kts | 96° |
| 2026-05-01 09:11 | 56.97603 | -14.49933 | 38615 ft | 493 kts | 96° |
| 2026-05-01 09:12 | 56.97288 | -14.43677 | 39013 ft | 493 kts | 96° |
| 2026-05-01 09:12 | 56.96969 | -14.37393 | 39151 ft | 498 kts | 96° |
| 2026-05-01 09:12 | 56.96327 | -14.24926 | 39169 ft | 489 kts | 96° |
| 2026-05-01 09:13 | 56.95671 | -14.12503 | 39167 ft | 490 kts | 98° |
| 2026-05-01 09:13 | 56.94360 | -14.00273 | 39167 ft | 489 kts | 107° |
| 2026-05-01 09:14 | 56.92047 | -13.88606 | 39163 ft | 487 kts | 116° |
| 2026-05-01 09:14 | 56.89128 | -13.77429 | 39163 ft | 487 kts | 116° |
| 2026-05-01 09:15 | 56.86234 | -13.66274 | 39191 ft | 485 kts | 117° |
| 2026-05-01 09:15 | 56.83330 | -13.55174 | 39178 ft | 483 kts | 117° |
| 2026-05-01 09:16 | 56.80418 | -13.44130 | 39167 ft | 482 kts | 117° |
| 2026-05-01 09:17 | 56.76040 | -13.27625 | 39147 ft | 481 kts | 117° |
| 2026-05-01 09:17 | 56.71650 | -13.11195 | 39134 ft | 480 kts | 117° |
| 2026-05-01 09:18 | 56.67258 | -12.94875 | 39114 ft | 482 kts | 117° |
| 2026-05-01 09:19 | 56.62807 | -12.78455 | 39091 ft | 485 kts | 118° |
| 2026-05-01 09:20 | 56.58303 | -12.61959 | 39113 ft | 488 kts | 118° |
| 2026-05-01 09:21 | 56.52209 | -12.39827 | 39142 ft | 492 kts | 118° |
| 2026-05-01 09:21 | 56.47592 | -12.23200 | 39151 ft | 493 kts | 118° |
| 2026-05-01 09:22 | 56.41408 | -12.01115 | 39130 ft | 491 kts | 118° |
| 2026-05-01 09:23 | 56.36760 | -11.84655 | 39116 ft | 490 kts | 119° |
| 2026-05-01 09:24 | 56.32106 | -11.68289 | 39104 ft | 489 kts | 119° |
| 2026-05-01 09:25 | 56.25893 | -11.46621 | 39134 ft | 484 kts | 120° |
| 2026-05-01 09:26 | 56.21294 | -11.30709 | 39099 ft | 476 kts | 120° |
| 2026-05-01 09:26 | 56.16684 | -11.14876 | 39094 ft | 477 kts | 120° |
| 2026-05-01 09:27 | 56.12072 | -10.99135 | 39091 ft | 477 kts | 120° |
| 2026-05-01 09:28 | 56.08975 | -10.88627 | 39088 ft | 477 kts | 120° |
| 2026-05-01 09:28 | 56.05873 | -10.78145 | 39096 ft | 476 kts | 120° |
| 2026-05-01 09:29 | 56.01712 | -10.64162 | 39086 ft | 476 kts | 120° |
| 2026-05-01 09:30 | 55.97057 | -10.48614 | 39083 ft | 475 kts | 120° |
| 2026-05-01 09:30 | 55.92365 | -10.33046 | 39074 ft | 475 kts | 120° |
| 2026-05-01 09:31 | 55.89227 | -10.22693 | 39068 ft | 474 kts | 121° |
| 2026-05-01 09:32 | 55.84515 | -10.07217 | 39071 ft | 474 kts | 121° |
| 2026-05-01 09:32 | 55.79668 | -9.91913 | 39067 ft | 473 kts | 122° |
| 2026-05-01 09:33 | 55.76418 | -9.81737 | 39071 ft | 473 kts | 122° |
| 2026-05-01 09:34 | 55.71532 | -9.66511 | 39072 ft | 473 kts | 122° |
| 2026-05-01 09:34 | 55.66607 | -9.51334 | 39079 ft | 473 kts | 122° |
| 2026-05-01 09:35 | 55.61662 | -9.36207 | 39078 ft | 473 kts | 123° |
| 2026-05-01 09:36 | 55.58355 | -9.26141 | 39078 ft | 473 kts | 123° |
| 2026-05-01 09:36 | 55.55040 | -9.16091 | 39077 ft | 473 kts | 123° |
| 2026-05-01 09:37 | 55.51717 | -9.06061 | 39076 ft | 473 kts | 123° |
| 2026-05-01 09:37 | 55.46746 | -8.91131 | 39054 ft | 473 kts | 123° |
| 2026-05-01 09:38 | 55.41743 | -8.76201 | 39081 ft | 471 kts | 123° |
| 2026-05-01 09:39 | 55.36734 | -8.61341 | 39075 ft | 470 kts | 123° |
| 2026-05-01 09:39 | 55.33387 | -8.51465 | 39073 ft | 470 kts | 124° |
| 2026-05-01 09:40 | 55.28354 | -8.36688 | 39071 ft | 470 kts | 124° |
| 2026-05-01 09:41 | 55.24992 | -8.26865 | 39062 ft | 470 kts | 124° |
| 2026-05-01 09:41 | 55.19931 | -8.12153 | 39074 ft | 470 kts | 124° |
| 2026-05-01 09:42 | 55.16544 | -8.02356 | 39089 ft | 471 kts | 124° |
| 2026-05-01 09:43 | 55.09728 | -7.82764 | 39084 ft | 472 kts | 124° |
| 2026-05-01 09:43 | 55.06310 | -7.72994 | 39080 ft | 472 kts | 124° |
| 2026-05-01 09:44 | 55.01168 | -7.58375 | 39094 ft | 471 kts | 124° |
| 2026-05-01 09:45 | 54.97762 | -7.48737 | 39108 ft | 470 kts | 125° |
| 2026-05-01 09:45 | 54.92607 | -7.34225 | 39105 ft | 469 kts | 125° |
| 2026-05-01 09:46 | 54.89168 | -7.24589 | 39095 ft | 469 kts | 125° |
| 2026-05-01 09:46 | 54.85720 | -7.14968 | 39104 ft | 469 kts | 125° |
| 2026-05-01 09:47 | 54.82270 | -7.05375 | 39083 ft | 469 kts | 125° |
| 2026-05-01 09:47 | 54.78815 | -6.95812 | 39102 ft | 468 kts | 125° |
| 2026-05-01 09:48 | 54.75353 | -6.86261 | 39117 ft | 468 kts | 125° |
| 2026-05-01 09:48 | 54.71882 | -6.76725 | 39123 ft | 468 kts | 125° |
| 2026-05-01 09:49 | 54.68404 | -6.67208 | 39124 ft | 468 kts | 126° |
| 2026-05-01 09:49 | 54.64945 | -6.57777 | 39117 ft | 468 kts | 126° |
| 2026-05-01 09:50 | 54.61458 | -6.48305 | 39126 ft | 467 kts | 126° |
| 2026-05-01 09:50 | 54.57966 | -6.38856 | 39111 ft | 467 kts | 126° |
| 2026-05-01 09:51 | 54.54463 | -6.29414 | 39121 ft | 468 kts | 126° |
| 2026-05-01 09:51 | 54.50949 | -6.19978 | 39126 ft | 469 kts | 126° |
| 2026-05-01 09:52 | 54.47418 | -6.10536 | 39132 ft | 469 kts | 126° |
| 2026-05-01 09:52 | 54.43879 | -6.01103 | 39135 ft | 470 kts | 126° |
| 2026-05-01 09:53 | 54.40331 | -5.91685 | 39143 ft | 470 kts | 126° |
| 2026-05-01 09:53 | 54.36775 | -5.82281 | 39147 ft | 470 kts | 126° |
| 2026-05-01 09:54 | 54.33212 | -5.72892 | 39154 ft | 469 kts | 126° |
| 2026-05-01 09:54 | 54.29652 | -5.63532 | 39155 ft | 469 kts | 126° |
| 2026-05-01 09:55 | 54.26025 | -5.54285 | 39149 ft | 467 kts | 129° |
| 2026-05-01 09:55 | 54.22203 | -5.45313 | 39145 ft | 466 kts | 129° |
| 2026-05-01 09:56 | 54.18417 | -5.36328 | 39139 ft | 466 kts | 129° |
| 2026-05-01 09:56 | 54.14617 | -5.27365 | 39131 ft | 466 kts | 129° |
| 2026-05-01 09:57 | 54.10805 | -5.18421 | 39139 ft | 466 kts | 129° |
| 2026-05-01 09:57 | 54.06989 | -5.09499 | 39143 ft | 467 kts | 129° |
| 2026-05-01 09:58 | 54.03156 | -5.00569 | 39162 ft | 467 kts | 129° |
| 2026-05-01 09:58 | 53.99315 | -4.91653 | 39165 ft | 467 kts | 129° |
| 2026-05-01 09:59 | 53.95463 | -4.82744 | 39167 ft | 468 kts | 129° |
| 2026-05-01 09:59 | 53.91604 | -4.73858 | 39152 ft | 468 kts | 129° |
| 2026-05-01 10:00 | 53.87736 | -4.64983 | 39147 ft | 468 kts | 129° |
| 2026-05-01 10:00 | 53.83883 | -4.56174 | 39156 ft | 469 kts | 129° |
| 2026-05-01 10:01 | 53.79988 | -4.47297 | 39163 ft | 470 kts | 129° |
| 2026-05-01 10:01 | 53.76078 | -4.38415 | 39165 ft | 470 kts | 129° |
| 2026-05-01 10:02 | 53.72165 | -4.29554 | 39167 ft | 470 kts | 129° |
| 2026-05-01 10:02 | 53.68252 | -4.20726 | 39166 ft | 470 kts | 129° |
| 2026-05-01 10:03 | 53.64435 | -4.11765 | 39151 ft | 471 kts | 124° |
| 2026-05-01 10:03 | 53.61393 | -4.01949 | 39152 ft | 475 kts | 115° |
| 2026-05-01 10:04 | 53.58892 | -3.91654 | 39152 ft | 475 kts | 115° |
| 2026-05-01 10:04 | 53.56357 | -3.81387 | 39154 ft | 475 kts | 115° |
| 2026-05-01 10:05 | 53.53800 | -3.71132 | 39158 ft | 476 kts | 115° |
| 2026-05-01 10:05 | 53.51231 | -3.60877 | 39144 ft | 476 kts | 115° |
| 2026-05-01 10:06 | 53.48655 | -3.50641 | 39148 ft | 476 kts | 115° |
| 2026-05-01 10:06 | 53.46066 | -3.40399 | 39154 ft | 477 kts | 115° |
| 2026-05-01 10:07 | 53.43469 | -3.30175 | 39152 ft | 477 kts | 116° |
| 2026-05-01 10:07 | 53.40949 | -3.19894 | 39156 ft | 479 kts | 111° |
| 2026-05-01 10:08 | 53.38809 | -3.03473 | 39154 ft | 484 kts | 97° |
| 2026-05-01 10:09 | 53.38396 | -2.92193 | 39155 ft | 486 kts | 96° |
| 2026-05-01 10:09 | 53.37975 | -2.80973 | 39156 ft | 486 kts | 96° |
| 2026-05-01 10:10 | 53.37528 | -2.69686 | 39157 ft | 486 kts | 96° |
| 2026-05-01 10:10 | 53.36837 | -2.52755 | 39150 ft | 486 kts | 96° |
| 2026-05-01 10:11 | 53.36363 | -2.41467 | 39153 ft | 486 kts | 96° |
| 2026-05-01 10:11 | 53.35879 | -2.30189 | 39155 ft | 486 kts | 96° |
| 2026-05-01 10:12 | 53.35171 | -2.20881 | 39156 ft | 484 kts | 102° |
| 2026-05-01 10:13 | 53.33256 | -2.02351 | 39152 ft | 484 kts | 102° |
| 2026-05-01 10:13 | 53.32107 | -1.91252 | 39159 ft | 484 kts | 102° |
| 2026-05-01 10:14 | 53.30358 | -1.74624 | 39166 ft | 484 kts | 102° |
| 2026-05-01 10:14 | 53.29180 | -1.63550 | 39172 ft | 484 kts | 102° |
| 2026-05-01 10:15 | 53.27992 | -1.52493 | 39157 ft | 484 kts | 103° |
| 2026-05-01 10:15 | 53.26795 | -1.41442 | 39169 ft | 483 kts | 103° |
| 2026-05-01 10:16 | 53.25588 | -1.30409 | 39169 ft | 483 kts | 103° |
| 2026-05-01 10:17 | 53.23963 | -1.15714 | 39176 ft | 483 kts | 103° |
| 2026-05-01 10:17 | 53.22113 | -0.99183 | 39175 ft | 483 kts | 103° |
| 2026-05-01 10:18 | 53.20242 | -0.82684 | 39184 ft | 482 kts | 103° |
| 2026-05-01 10:19 | 53.18981 | -0.71702 | 39180 ft | 482 kts | 103° |
| 2026-05-01 10:19 | 53.17712 | -0.60720 | 39181 ft | 482 kts | 103° |
| 2026-05-01 10:20 | 53.15790 | -0.44267 | 39182 ft | 482 kts | 103° |
| 2026-05-01 10:20 | 53.14495 | -0.33306 | 39186 ft | 482 kts | 103° |
| 2026-05-01 10:21 | 53.12542 | -0.16949 | 39185 ft | 482 kts | 104° |
| 2026-05-01 10:22 | 53.10558 | -0.00532 | 39175 ft | 482 kts | 104° |
| 2026-05-01 10:23 | 53.08555 | 0.15843 | 39211 ft | 481 kts | 104° |
| 2026-05-01 10:23 | 53.06533 | 0.32178 | 39200 ft | 480 kts | 104° |
| 2026-05-01 10:24 | 53.03805 | 0.53908 | 39198 ft | 480 kts | 104° |
| 2026-05-01 10:25 | 53.01041 | 0.75579 | 39203 ft | 479 kts | 104° |
| 2026-05-01 10:26 | 52.99647 | 0.86382 | 39212 ft | 479 kts | 104° |
| 2026-05-01 10:27 | 52.96181 | 1.07608 | 39204 ft | 476 kts | 113° |
| 2026-05-01 10:28 | 52.92690 | 1.22969 | 39228 ft | 477 kts | 112° |
| 2026-05-01 10:28 | 52.89175 | 1.38421 | 39236 ft | 479 kts | 112° |
| 2026-05-01 10:29 | 52.85624 | 1.53889 | 39240 ft | 479 kts | 112° |
| 2026-05-01 10:30 | 52.80856 | 1.74487 | 39252 ft | 480 kts | 112° |
| 2026-05-01 10:31 | 52.76047 | 1.95063 | 39263 ft | 480 kts | 113° |
| 2026-05-01 10:32 | 52.72421 | 2.10445 | 39271 ft | 479 kts | 113° |
| 2026-05-01 10:33 | 52.67567 | 2.30870 | 39268 ft | 478 kts | 113° |
| 2026-05-01 10:34 | 52.63909 | 2.46134 | 39266 ft | 477 kts | 113° |
| 2026-05-01 10:34 | 52.61480 | 2.56212 | 39272 ft | 476 kts | 113° |
| 2026-05-01 10:35 | 52.57799 | 2.71395 | 39275 ft | 476 kts | 114° |
| 2026-05-01 10:35 | 52.55334 | 2.81491 | 39271 ft | 476 kts | 114° |
| 2026-05-01 10:36 | 52.50903 | 2.96032 | 39273 ft | 474 kts | 119° |
| 2026-05-01 10:37 | 52.47855 | 3.05632 | 39283 ft | 474 kts | 118° |
| 2026-05-01 10:37 | 52.43281 | 3.20008 | 39267 ft | 474 kts | 118° |
| 2026-05-01 10:38 | 52.40219 | 3.29562 | 39271 ft | 474 kts | 120° |
| 2026-05-01 10:38 | 52.37146 | 3.39105 | 39276 ft | 473 kts | 119° |
| 2026-05-01 10:39 | 52.34068 | 3.48624 | 39266 ft | 473 kts | 119° |
| 2026-05-01 10:39 | 52.30984 | 3.58128 | 39273 ft | 473 kts | 119° |
| 2026-05-01 10:40 | 52.27887 | 3.67637 | 39277 ft | 474 kts | 119° |
| 2026-05-01 10:40 | 52.24784 | 3.77124 | 39281 ft | 474 kts | 119° |
| 2026-05-01 10:41 | 52.21672 | 3.86605 | 39280 ft | 474 kts | 119° |
| 2026-05-01 10:42 | 52.16990 | 4.00794 | 39276 ft | 474 kts | 118° |
| 2026-05-01 10:42 | 52.13856 | 4.10252 | 39278 ft | 475 kts | 119° |
| 2026-05-01 10:43 | 52.10707 | 4.19717 | 39281 ft | 476 kts | 119° |
| 2026-05-01 10:43 | 52.07550 | 4.29170 | 39287 ft | 476 kts | 119° |
| 2026-05-01 10:44 | 52.04378 | 4.38629 | 39288 ft | 476 kts | 119° |
| 2026-05-01 10:44 | 52.01202 | 4.48069 | 39270 ft | 477 kts | 119° |
| 2026-05-01 10:45 | 51.98038 | 4.57433 | 39274 ft | 476 kts | 119° |
| 2026-05-01 10:45 | 51.94847 | 4.66845 | 39272 ft | 476 kts | 119° |
| 2026-05-01 10:46 | 51.91647 | 4.76246 | 39283 ft | 476 kts | 120° |
| 2026-05-01 10:46 | 51.88444 | 4.85621 | 39273 ft | 476 kts | 119° |
| 2026-05-01 10:47 | 51.85236 | 4.94977 | 39294 ft | 475 kts | 120° |
| 2026-05-01 10:47 | 51.82018 | 5.04324 | 39293 ft | 475 kts | 120° |
| 2026-05-01 10:48 | 51.78797 | 5.13644 | 39289 ft | 475 kts | 120° |
| 2026-05-01 10:48 | 51.75569 | 5.22954 | 39284 ft | 475 kts | 120° |
| 2026-05-01 10:49 | 51.72339 | 5.32234 | 39289 ft | 474 kts | 120° |
| 2026-05-01 10:49 | 51.69100 | 5.41504 | 39283 ft | 474 kts | 120° |
| 2026-05-01 10:50 | 51.65853 | 5.50766 | 39283 ft | 475 kts | 120° |
| 2026-05-01 10:50 | 51.62592 | 5.60033 | 39290 ft | 476 kts | 121° |
| 2026-05-01 10:51 | 51.59323 | 5.69284 | 39316 ft | 476 kts | 120° |
| 2026-05-01 10:51 | 51.56043 | 5.78538 | 39323 ft | 476 kts | 121° |
| 2026-05-01 10:52 | 51.52752 | 5.87785 | 39308 ft | 478 kts | 120° |
| 2026-05-01 10:52 | 51.49442 | 5.97055 | 39315 ft | 478 kts | 121° |
| 2026-05-01 10:53 | 51.46125 | 6.06309 | 39319 ft | 479 kts | 121° |
| 2026-05-01 10:53 | 51.42798 | 6.15558 | 39322 ft | 479 kts | 121° |
| 2026-05-01 10:54 | 51.39458 | 6.24805 | 39322 ft | 479 kts | 121° |
| 2026-05-01 10:54 | 51.36131 | 6.33986 | 39321 ft | 480 kts | 121° |
| 2026-05-01 10:55 | 51.32772 | 6.43225 | 39318 ft | 481 kts | 121° |
| 2026-05-01 10:55 | 51.29400 | 6.52463 | 39323 ft | 481 kts | 121° |
| 2026-05-01 10:56 | 51.26022 | 6.61684 | 39323 ft | 481 kts | 121° |
| 2026-05-01 10:56 | 51.22633 | 6.70900 | 39312 ft | 482 kts | 121° |
| 2026-05-01 10:57 | 51.19231 | 6.80120 | 39314 ft | 482 kts | 121° |
| 2026-05-01 10:57 | 51.15821 | 6.89329 | 39326 ft | 483 kts | 121° |
| 2026-05-01 10:58 | 51.12399 | 6.98536 | 39335 ft | 483 kts | 121° |
| 2026-05-01 10:58 | 51.08968 | 7.07734 | 39348 ft | 484 kts | 121° |
| 2026-05-01 10:59 | 51.05528 | 7.16922 | 39354 ft | 484 kts | 121° |
| 2026-05-01 10:59 | 51.02102 | 7.26043 | 39346 ft | 484 kts | 121° |
| 2026-05-01 11:00 | 50.98622 | 7.35272 | 39353 ft | 484 kts | 121° |
| 2026-05-01 11:00 | 50.95156 | 7.44431 | 39356 ft | 484 kts | 121° |
| 2026-05-01 11:01 | 50.91684 | 7.53574 | 39361 ft | 484 kts | 121° |
| 2026-05-01 11:01 | 50.88204 | 7.62716 | 39348 ft | 485 kts | 121° |
| 2026-05-01 11:02 | 50.84500 | 7.71619 | 39353 ft | 486 kts | 127° |
| 2026-05-01 11:02 | 50.80153 | 7.79722 | 39371 ft | 486 kts | 134° |
| 2026-05-01 11:03 | 50.75254 | 7.87060 | 39372 ft | 486 kts | 137° |
| 2026-05-01 11:03 | 50.70320 | 7.94387 | 39379 ft | 487 kts | 137° |
| 2026-05-01 11:04 | 50.65381 | 8.01708 | 39357 ft | 488 kts | 136° |
| 2026-05-01 11:04 | 50.60341 | 8.08868 | 39384 ft | 488 kts | 141° |
| 2026-05-01 11:05 | 50.54742 | 8.14898 | 39359 ft | 489 kts | 147° |
| 2026-05-01 11:05 | 50.48996 | 8.20627 | 39374 ft | 489 kts | 147° |
| 2026-05-01 11:06 | 50.43263 | 8.26366 | 39374 ft | 489 kts | 147° |
| 2026-05-01 11:06 | 50.37516 | 8.32111 | 39364 ft | 490 kts | 147° |
| 2026-05-01 11:07 | 50.29985 | 8.40003 | 39391 ft | 489 kts | 141° |
| 2026-05-01 11:07 | 50.25036 | 8.47253 | 39373 ft | 488 kts | 131° |
| 2026-05-01 11:08 | 50.20470 | 8.55090 | 39380 ft | 487 kts | 131° |
| 2026-05-01 11:09 | 50.13575 | 8.66750 | 39380 ft | 487 kts | 132° |
| 2026-05-01 11:09 | 50.08967 | 8.74491 | 39386 ft | 487 kts | 132° |
| 2026-05-01 11:10 | 50.01784 | 8.85547 | 39372 ft | 487 kts | 137° |
| 2026-05-01 11:10 | 49.96731 | 8.92667 | 39364 ft | 487 kts | 137° |
| 2026-05-01 11:11 | 49.91715 | 8.99739 | 39359 ft | 487 kts | 137° |
| 2026-05-01 11:11 | 49.86692 | 9.06800 | 39350 ft | 487 kts | 137° |
| 2026-05-01 11:12 | 49.81669 | 9.13839 | 39360 ft | 487 kts | 137° |
| 2026-05-01 11:12 | 49.76632 | 9.20878 | 39332 ft | 488 kts | 136° |
| 2026-05-01 11:13 | 49.71589 | 9.27905 | 39351 ft | 488 kts | 136° |
| 2026-05-01 11:13 | 49.66537 | 9.34923 | 39114 ft | 485 kts | 136° |
| 2026-05-01 11:14 | 49.64076 | 9.38333 | 38844 ft | 479 kts | 137° |
| 2026-05-01 11:14 | 49.61642 | 9.41814 | 38574 ft | 477 kts | 132° |
| 2026-05-01 11:14 | 49.59414 | 9.45634 | 38313 ft | 480 kts | 130° |
| 2026-05-01 11:14 | 49.57222 | 9.49521 | 37913 ft | 479 kts | 129° |
| 2026-05-01 11:15 | 49.55028 | 9.53391 | 37129 ft | 481 kts | 129° |
| 2026-05-01 11:15 | 49.52810 | 9.57289 | 36105 ft | 487 kts | 129° |
| 2026-05-01 11:15 | 49.50572 | 9.61206 | 35369 ft | 486 kts | 129° |
| 2026-05-01 11:15 | 49.48350 | 9.65085 | 34797 ft | 482 kts | 129° |
| 2026-05-01 11:16 | 49.46135 | 9.68947 | 34161 ft | 479 kts | 129° |
| 2026-05-01 11:16 | 49.43943 | 9.72766 | 33550 ft | 474 kts | 130° |
| 2026-05-01 11:16 | 49.41769 | 9.76546 | 32966 ft | 469 kts | 130° |
| 2026-05-01 11:16 | 49.39619 | 9.80278 | 32394 ft | 464 kts | 129° |
| 2026-05-01 11:17 | 49.37489 | 9.83975 | 31824 ft | 460 kts | 130° |
| 2026-05-01 11:17 | 49.35379 | 9.87622 | 31256 ft | 456 kts | 129° |
| 2026-05-01 11:17 | 49.33283 | 9.91238 | 30691 ft | 452 kts | 129° |
| 2026-05-01 11:17 | 49.31206 | 9.94814 | 30087 ft | 448 kts | 129° |
| 2026-05-01 11:18 | 49.29145 | 9.98357 | 29522 ft | 442 kts | 129° |
| 2026-05-01 11:18 | 49.27113 | 10.01849 | 28957 ft | 436 kts | 130° |
| 2026-05-01 11:18 | 49.25107 | 10.05290 | 28411 ft | 431 kts | 129° |
| 2026-05-01 11:18 | 49.23126 | 10.08688 | 27863 ft | 426 kts | 129° |
| 2026-05-01 11:19 | 49.21165 | 10.12045 | 27336 ft | 421 kts | 129° |
| 2026-05-01 11:19 | 49.19224 | 10.15363 | 26796 ft | 416 kts | 129° |
| 2026-05-01 11:19 | 49.17303 | 10.18648 | 26276 ft | 412 kts | 129° |
| 2026-05-01 11:19 | 49.15399 | 10.21900 | 25732 ft | 408 kts | 129° |
| 2026-05-01 11:20 | 49.13512 | 10.25113 | 25201 ft | 405 kts | 130° |
| 2026-05-01 11:20 | 49.11594 | 10.28250 | 24675 ft | 402 kts | 131° |
| 2026-05-01 11:20 | 49.09669 | 10.31320 | 24162 ft | 399 kts | 131° |
| 2026-05-01 11:20 | 49.07753 | 10.34369 | 23599 ft | 396 kts | 131° |
| 2026-05-01 11:21 | 49.05860 | 10.37387 | 23078 ft | 391 kts | 131° |
| 2026-05-01 11:21 | 49.03995 | 10.40366 | 22551 ft | 386 kts | 130° |
| 2026-05-01 11:21 | 49.02158 | 10.43308 | 22039 ft | 381 kts | 131° |
| 2026-05-01 11:21 | 49.00339 | 10.46221 | 21543 ft | 377 kts | 130° |
| 2026-05-01 11:22 | 48.98538 | 10.49101 | 21035 ft | 374 kts | 131° |
| 2026-05-01 11:22 | 48.96751 | 10.51950 | 20526 ft | 370 kts | 131° |
| 2026-05-01 11:22 | 48.94976 | 10.54772 | 20024 ft | 367 kts | 131° |
| 2026-05-01 11:22 | 48.93222 | 10.57564 | 19522 ft | 364 kts | 131° |
| 2026-05-01 11:23 | 48.91483 | 10.60331 | 19024 ft | 361 kts | 131° |
| 2026-05-01 11:23 | 48.89752 | 10.63081 | 18504 ft | 358 kts | 131° |
| 2026-05-01 11:23 | 48.88038 | 10.65802 | 17997 ft | 354 kts | 131° |
| 2026-05-01 11:23 | 48.86333 | 10.68509 | 17645 ft | 359 kts | 131° |
| 2026-05-01 11:24 | 48.84614 | 10.71238 | 17118 ft | 365 kts | 131° |
| 2026-05-01 11:24 | 48.82859 | 10.74018 | 16581 ft | 365 kts | 131° |
| 2026-05-01 11:24 | 48.79386 | 10.79489 | 15529 ft | 355 kts | 131° |
| 2026-05-01 11:25 | 48.77675 | 10.82170 | 15023 ft | 352 kts | 131° |
| 2026-05-01 11:25 | 48.74308 | 10.87446 | 13974 ft | 344 kts | 131° |
| 2026-05-01 11:25 | 48.72655 | 10.90038 | 13470 ft | 340 kts | 131° |
| 2026-05-01 11:26 | 48.71026 | 10.92588 | 12988 ft | 335 kts | 131° |
| 2026-05-01 11:26 | 48.67825 | 10.97579 | 12029 ft | 326 kts | 131° |
| 2026-05-01 11:26 | 48.66252 | 11.00030 | 11582 ft | 323 kts | 132° |
| 2026-05-01 11:27 | 48.64697 | 11.02447 | 11119 ft | 319 kts | 131° |
| 2026-05-01 11:27 | 48.63161 | 11.04834 | 10729 ft | 313 kts | 132° |
| 2026-05-01 11:27 | 48.61679 | 11.07138 | 10631 ft | 299 kts | 131° |
| 2026-05-01 11:27 | 48.60261 | 11.09336 | 10549 ft | 286 kts | 131° |
| 2026-05-01 11:28 | 48.58901 | 11.11443 | 10365 ft | 276 kts | 132° |
| 2026-05-01 11:28 | 48.57485 | 11.13407 | 10222 ft | 279 kts | 140° |
| 2026-05-01 11:28 | 48.55869 | 11.15076 | 9947 ft | 282 kts | 143° |
| 2026-05-01 11:29 | 48.52639 | 11.18332 | 9357 ft | 274 kts | 144° |
| 2026-05-01 11:29 | 48.51110 | 11.19992 | 9080 ft | 268 kts | 137° |
| 2026-05-01 11:29 | 48.48496 | 11.23862 | 8453 ft | 262 kts | 133° |
| 2026-05-01 11:30 | 48.47187 | 11.25806 | 7935 ft | 266 kts | 133° |
| 2026-05-01 11:30 | 48.45846 | 11.27785 | 7407 ft | 271 kts | 134° |
| 2026-05-01 11:30 | 48.44505 | 11.29731 | 7186 ft | 265 kts | 134° |
| 2026-05-01 11:30 | 48.43191 | 11.31648 | 7000 ft | 261 kts | 133° |
| 2026-05-01 11:31 | 48.41896 | 11.33555 | 6689 ft | 258 kts | 134° |
| 2026-05-01 11:31 | 48.40631 | 11.35420 | 6415 ft | 251 kts | 134° |
| 2026-05-01 11:31 | 48.39395 | 11.37234 | 6124 ft | 245 kts | 134° |
| 2026-05-01 11:31 | 48.38199 | 11.39002 | 5857 ft | 238 kts | 134° |
| 2026-05-01 11:32 | 48.37022 | 11.40738 | 5590 ft | 238 kts | 134° |
| 2026-05-01 11:32 | 48.35844 | 11.42467 | 5330 ft | 234 kts | 133° |
| 2026-05-01 11:32 | 48.34682 | 11.44172 | 5071 ft | 234 kts | 134° |
| 2026-05-01 11:32 | 48.33488 | 11.45926 | 4993 ft | 242 kts | 131° |
| 2026-05-01 11:33 | 48.32626 | 11.47947 | 4989 ft | 226 kts | 109° |
| 2026-05-01 11:33 | 48.32324 | 11.50198 | 4802 ft | 218 kts | 94° |
| 2026-05-01 11:33 | 48.32345 | 11.52459 | 4505 ft | 210 kts | 87° |
| 2026-05-01 11:33 | 48.32481 | 11.54612 | 4223 ft | 204 kts | 84° |
| 2026-05-01 11:34 | 48.32643 | 11.56680 | 3940 ft | 195 kts | 85° |
| 2026-05-01 11:34 | 48.32791 | 11.58599 | 3730 ft | 172 kts | 84° |
| 2026-05-01 11:34 | 48.32921 | 11.60255 | 3512 ft | 147 kts | 84° |
| 2026-05-01 11:34 | 48.33033 | 11.61695 | 3308 ft | 135 kts | 85° |
| 2026-05-01 11:35 | 48.33141 | 11.63065 | 3139 ft | 130 kts | 85° |
| 2026-05-01 11:35 | 48.33236 | 11.64402 | 2965 ft | 129 kts | 85° |
| 2026-05-01 11:35 | 48.33347 | 11.65757 | 2790 ft | 132 kts | 85° |
| 2026-05-01 11:35 | 48.33446 | 11.67137 | 2601 ft | 133 kts | 85° |
| 2026-05-01 11:36 | 48.33557 | 11.68489 | 2420 ft | 130 kts | 84° |
| 2026-05-01 11:36 | 48.33656 | 11.69863 | 2234 ft | 132 kts | 83° |
| 2026-05-01 11:36 | 48.33770 | 11.71243 | 2051 ft | 132 kts | 85° |
| 2026-05-01 11:36 | 48.33883 | 11.72591 | 1887 ft | 127 kts | 86° |
| 2026-05-01 11:37 | 48.33970 | 11.73912 | 1700 ft | 130 kts | 84° |
| 2026-05-01 11:37 | 48.34083 | 11.75255 | 1521 ft | 129 kts | 85° |
| 2026-05-01 11:37 | 48.34172 | 11.76471 | 1490 ft | 96 kts | 84° |
| 2026-05-01 11:37 | 48.34234 | 11.77271 | 1479 ft | 61 kts | 83° |
| 2026-05-01 11:38 | 48.34274 | 11.77785 | 1486 ft | 40 kts | 83° |
| 2026-05-01 11:38 | 48.34302 | 11.78137 | 1487 ft | 32 kts | 83° |
| 2026-05-01 11:38 | 48.34329 | 11.78468 | 1483 ft | 32 kts | 84° |
| 2026-05-01 11:38 | 48.34353 | 11.78798 | 1482 ft | 32 kts | 83° |
| 2026-05-01 11:39 | 48.34408 | 11.79097 | 1477 ft | 26 kts | 60° |
| 2026-05-01 11:39 | 48.34499 | 11.79292 | 1475 ft | 20 kts | 54° |
| 2026-05-01 11:39 | 48.34572 | 11.79440 | 1475 ft | 17 kts | 53° |
| 2026-05-01 11:39 | 48.34637 | 11.79569 | 1484 ft | 11 kts | 53° |
| 2026-05-01 11:40 | 48.34654 | 11.79603 | 1477 ft | 0 kts | 53° |
| 2026-05-01 11:40 | 48.34655 | 11.79604 | 1477 ft | 0 kts | 53° |
| 2026-05-01 11:40 | 48.34659 | 11.79613 | 1480 ft | 7 kts | 52° |
| 2026-05-01 11:40 | 48.34718 | 11.79700 | 1483 ft | 12 kts | 17° |
| 2026-05-01 11:41 | 48.34807 | 11.79702 | 1488 ft | 14 kts | 354° |
| 2026-05-01 11:41 | 48.34891 | 11.79688 | 1483 ft | 12 kts | 353° |
| 2026-05-01 11:41 | 48.34910 | 11.79684 | 1486 ft | 0 kts | 353° |
| 2026-05-01 11:42 | 48.34912 | 11.79684 | 1477 ft | 0 kts | 353° |
| 2026-05-01 11:42 | 48.34913 | 11.79684 | 1477 ft | 1 kts | 353° |
| 2026-05-01 11:42 | 48.34947 | 11.79678 | 1478 ft | 10 kts | 353° |
| 2026-05-01 11:42 | 48.35036 | 11.79663 | 1490 ft | 12 kts | 357° |
| 2026-05-01 11:43 | 48.35097 | 11.79722 | 1480 ft | 11 kts | 74° |
| 2026-05-01 11:43 | 48.35111 | 11.79839 | 1485 ft | 12 kts | 83° |
| 2026-05-01 11:43 | 48.35121 | 11.79969 | 1487 ft | 12 kts | 83° |
| 2026-05-01 11:44 | 48.35151 | 11.80174 | 1478 ft | 8 kts | 34° |
| 2026-05-01 11:44 | 48.35206 | 11.80187 | 1486 ft | 10 kts | 355° |
| 2026-05-01 11:44 | 48.35275 | 11.80174 | 1483 ft | 8 kts | 353° |
| 2026-05-01 11:44 | 48.35316 | 11.80161 | 1482 ft | 3 kts | 308° |
| 2026-05-01 11:45 | 48.35327 | 11.80111 | 1477 ft | 8 kts | 271° |
| 2026-05-01 11:45 | 48.35325 | 11.80058 | 1486 ft | 5 kts | 263° |
| 2026-05-01 11:45 | 48.35323 | 11.80034 | 1482 ft | 1 kts | 263° |
| 2026-05-01 11:45 | 48.35322 | 11.80026 | 1490 ft | 0 kts | 263° |